Time;durP1;ratioP1;P1;durP2;ratioP2;P2;SDS_P1;SDS_P2;PMS_P1;PMS_P2;Temp;Humidity;BMP_temperature;BMP_pressure;BME280_temperature;BME280_humidity;BME280_pressure;Samples;Min_cycle;Max_cycle;Signal;HPM_P1;HPM_P2
2022/04/10 00:02:19;;;;;;;8.10;2.47;;;25.10;99.90;;;;;;5072488;28;20187;-68
2022/04/10 00:04:46;;;;;;;9.43;2.60;;;25.10;99.90;;;;;;5072283;28;20224;-68
2022/04/10 00:07:13;;;;;;;6.57;2.33;;;25.20;99.90;;;;;;5069859;28;20587;-68
2022/04/10 00:09:41;;;;;;;5.77;2.00;;;24.90;99.90;;;;;;5063741;28;20215;-68
2022/04/10 00:12:09;;;;;;;9.83;2.63;;;25.20;99.90;;;;;;5074160;28;20168;-68
2022/04/10 00:14:37;;;;;;;4.23;1.60;;;25.70;99.90;;;;;;5056391;28;20220;-67
2022/04/10 00:17:04;;;;;;;8.20;1.70;;;26.10;99.90;;;;;;5066072;28;20188;-68
2022/04/10 00:19:32;;;;;;;10.43;2.30;;;25.70;99.90;;;;;;5065339;28;20183;-67
2022/04/10 00:22:00;;;;;;;10.23;2.07;;;26.00;99.90;;;;;;5062606;28;20181;-68
2022/04/10 00:24:28;;;;;;;4.77;1.57;;;26.00;99.90;;;;;;5063082;28;20229;-67
2022/04/10 00:26:55;;;;;;;7.47;1.90;;;25.70;99.90;;;;;;5073120;28;20184;-68
2022/04/10 00:29:23;;;;;;;7.43;2.20;;;25.70;99.90;;;;;;5074204;28;20680;-68
2022/04/10 00:31:51;;;;;;;7.23;1.90;;;25.70;99.90;;;;;;5073685;28;20649;-69
2022/04/10 00:34:18;;;;;;;6.27;1.63;;;26.00;99.90;;;;;;5069271;28;20670;-69
2022/04/10 00:36:45;;;;;;;7.47;2.20;;;25.70;99.90;;;;;;5073867;28;20219;-68
2022/04/10 00:39:13;;;;;;;7.70;2.27;;;26.10;99.90;;;;;;5073309;28;20687;-68
2022/04/10 00:41:40;;;;;;;7.83;2.03;;;25.90;99.90;;;;;;5073309;28;20317;-68
2022/04/10 00:44:11;;;;;;;8.87;2.10;;;26.30;99.90;;;;;;5068584;28;20298;-69
2022/04/10 00:46:39;;;;;;;12.20;2.43;;;26.20;99.90;;;;;;5073657;28;20963;-68
2022/04/10 00:49:07;;;;;;;7.90;1.50;;;26.30;99.90;;;;;;5076950;28;20224;-69
2022/04/10 00:51:46;;;;;;;8.87;2.00;;;26.60;99.90;;;;;;5057593;28;20173;-70
2022/04/10 00:54:20;;;;;;;5.37;1.63;;;26.60;99.90;;;;;;5066622;28;20737;-68
2022/04/10 00:56:47;;;;;;;6.20;1.83;;;26.50;99.90;;;;;;5071159;28;20335;-69
2022/04/10 00:59:15;;;;;;;8.50;2.20;;;26.90;99.90;;;;;;5073628;28;20640;-69
2022/04/10 01:01:47;;;;;;;6.70;1.70;;;27.10;99.90;;;;;;5073236;28;20183;-69
2022/04/10 01:04:16;;;;;;;7.13;1.53;;;27.30;99.90;;;;;;5071603;28;20996;-68
2022/04/10 01:06:51;;;;;;;8.13;1.97;;;27.00;99.90;;;;;;5073507;28;20181;-68
2022/04/10 01:09:20;;;;;;;3.83;1.60;;;27.10;99.90;;;;;;5072241;28;20318;-68
2022/04/10 01:11:48;;;;;;;6.53;1.90;;;28.00;99.90;;;;;;5053220;28;20205;-69
2022/04/10 01:14:16;;;;;;;6.57;1.87;;;28.30;99.90;;;;;;5058235;28;20290;-69
2022/04/10 01:16:44;;;;;;;8.93;1.80;;;26.80;99.90;;;;;;5055081;28;20262;-69
2022/04/10 01:19:11;;;;;;;5.53;1.90;;;25.60;99.90;;;;;;5060003;28;20180;-69
2022/04/10 01:21:46;;;;;;;8.10;1.80;;;25.50;99.90;;;;;;5071637;28;20569;-68
2022/04/10 01:24:14;;;;;;;7.63;2.27;;;25.90;99.90;;;;;;5072611;28;20179;-69
2022/04/10 01:26:43;;;;;;;7.63;2.07;;;26.90;99.90;;;;;;5071642;28;20186;-69
2022/04/10 01:29:11;;;;;;;7.30;2.13;;;27.00;99.90;;;;;;5060099;28;20216;-68
2022/04/10 01:31:41;;;;;;;10.47;1.97;;;26.70;99.90;;;;;;5072997;28;20551;-67
2022/04/10 01:34:13;;;;;;;7.50;2.00;;;26.30;99.90;;;;;;5072866;28;20219;-68
2022/04/10 01:36:42;;;;;;;7.87;1.67;;;26.80;99.90;;;;;;5072555;28;20172;-69
2022/04/10 01:39:11;;;;;;;8.03;2.33;;;27.10;99.90;;;;;;5072230;28;20228;-68
2022/04/10 01:41:38;;;;;;;7.37;1.80;;;27.40;99.90;;;;;;5072161;28;20224;-68
2022/04/10 01:44:07;;;;;;;5.70;1.70;;;27.90;99.90;;;;;;5072483;28;20176;-69
2022/04/10 01:46:36;;;;;;;7.80;2.33;;;29.00;99.90;;;;;;5072723;28;20184;-68
2022/04/10 01:49:05;;;;;;;6.07;2.00;;;28.40;99.90;;;;;;5072767;28;20233;-69
2022/04/10 01:51:33;;;;;;;4.43;1.50;;;28.20;99.90;;;;;;5072634;28;20190;-69
2022/04/10 01:54:01;;;;;;;7.70;2.13;;;28.10;99.90;;;;;;5072702;28;20176;-67
2022/04/10 01:56:28;;;;;;;7.73;1.90;;;28.10;99.90;;;;;;5072623;28;20174;-68
2022/04/10 01:58:55;;;;;;;7.57;2.27;;;28.20;99.90;;;;;;5072398;28;20183;-68
2022/04/10 02:01:24;;;;;;;6.70;1.60;;;28.70;99.90;;;;;;5072618;28;20164;-68
2022/04/10 02:03:51;;;;;;;5.47;1.37;;;28.50;99.90;;;;;;5072386;28;20198;-69
2022/04/10 02:06:19;;;;;;;7.43;1.87;;;28.30;99.90;;;;;;5072512;28;20164;-69
2022/04/10 02:08:47;;;;;;;6.90;1.50;;;28.30;99.90;;;;;;5072389;28;20215;-69
2022/04/10 02:11:18;;;;;;;5.03;1.90;;;28.30;99.90;;;;;;5071011;28;20184;-69
2022/04/10 02:13:46;;;;;;;9.87;1.90;;;28.40;99.90;;;;;;5072266;28;20180;-69
2022/04/10 02:16:18;;;;;;;6.10;1.40;;;28.10;99.90;;;;;;5070891;28;20317;-69
2022/04/10 02:18:48;;;;;;;4.23;1.70;;;27.80;99.90;;;;;;5072165;28;20240;-69
2022/04/10 02:21:16;;;;;;;4.30;1.40;;;27.80;99.90;;;;;;5072289;28;20657;-70
2022/04/10 02:23:44;;;;;;;4.80;1.33;;;28.40;99.90;;;;;;5071958;28;20190;-69
2022/04/10 02:26:12;;;;;;;5.20;1.70;;;29.00;99.90;;;;;;5072253;28;20629;-69
2022/04/10 02:28:40;;;;;;;4.53;1.37;;;28.50;99.90;;;;;;5071963;28;20227;-69
2022/04/10 02:31:08;;;;;;;5.07;1.40;;;28.50;99.90;;;;;;5071576;28;20267;-69
2022/04/10 02:33:37;;;;;;;5.97;1.90;;;28.70;99.90;;;;;;5071898;28;20211;-69
2022/04/10 02:36:05;;;;;;;3.13;1.40;;;28.90;99.90;;;;;;5072057;28;20262;-69
2022/04/10 02:38:32;;;;;;;3.50;1.23;;;29.30;99.90;;;;;;5071934;28;20204;-69
2022/04/10 02:41:00;;;;;;;4.77;1.50;;;29.60;99.90;;;;;;5072098;28;20180;-69
2022/04/10 02:43:27;;;;;;;6.10;1.55;;;29.70;99.90;;;;;;5072131;28;20184;-70
2022/04/10 02:45:57;;;;;;;4.38;1.27;;;29.50;99.90;;;;;;5071827;28;20222;-69
2022/04/10 02:48:24;;;;;;;5.97;1.30;;;29.50;99.90;;;;;;5071720;28;20677;-69
2022/04/10 02:50:51;;;;;;;4.17;1.40;;;29.00;99.90;;;;;;5071706;28;20214;-69
2022/04/10 02:53:18;;;;;;;3.57;1.20;;;28.90;99.90;;;;;;5071771;28;20180;-69
2022/04/10 02:55:46;;;;;;;6.10;1.40;;;28.50;99.90;;;;;;5070619;28;20182;-68
2022/04/10 02:58:13;;;;;;;6.27;1.43;;;28.70;99.90;;;;;;5071652;28;20182;-69
2022/04/10 03:00:40;;;;;;;5.60;1.43;;;29.10;99.90;;;;;;5071804;28;20592;-70
2022/04/10 03:03:08;;;;;;;7.07;1.45;;;29.50;99.90;;;;;;5071724;28;20175;-70
2022/04/10 03:05:35;;;;;;;3.97;1.70;;;29.00;99.90;;;;;;5071668;28;20188;-70
2022/04/10 03:08:02;;;;;;;5.00;1.20;;;29.10;99.90;;;;;;5071632;28;20200;-69
2022/04/10 03:10:30;;;;;;;5.73;1.50;;;28.90;99.90;;;;;;5071605;28;20218;-68
2022/04/10 03:12:57;;;;;;;4.87;1.90;;;28.90;99.90;;;;;;5071697;28;20203;-69
2022/04/10 03:15:24;;;;;;;5.37;2.07;;;29.70;99.90;;;;;;5074825;28;20251;-69
2022/04/10 03:17:52;;;;;;;6.93;2.20;;;29.30;99.90;;;;;;5091603;28;20168;-70
2022/04/10 03:20:19;;;;;;;7.37;2.30;;;29.60;99.90;;;;;;5090506;28;20549;-67
2022/04/10 03:22:46;;;;;;;4.33;2.00;;;29.80;99.90;;;;;;5082079;28;20180;-69
2022/04/10 03:25:14;;;;;;;5.03;2.00;;;29.50;99.90;;;;;;5071418;28;20172;-68
2022/04/10 03:27:41;;;;;;;6.10;1.80;;;29.00;99.90;;;;;;5071446;28;20223;-69
2022/04/10 03:30:09;;;;;;;3.57;1.43;;;29.20;99.90;;;;;;5071258;28;20325;-69
2022/04/10 03:32:36;;;;;;;5.07;1.20;;;29.60;99.90;;;;;;5071477;28;20630;-68
2022/04/10 03:35:04;;;;;;;4.47;1.43;;;29.50;99.90;;;;;;5071358;28;20259;-69
2022/04/10 03:37:31;;;;;;;5.63;1.77;;;30.20;99.90;;;;;;5071214;28;20179;-68
2022/04/10 03:39:58;;;;;;;9.27;1.90;;;29.50;99.90;;;;;;5071094;28;20168;-68
2022/04/10 03:42:26;;;;;;;5.53;1.67;;;30.10;99.90;;;;;;5074146;28;20171;-69
2022/04/10 03:44:53;;;;;;;3.87;1.60;;;30.20;99.90;;;;;;5074986;28;20172;-70
2022/04/10 03:47:20;;;;;;;4.73;1.70;;;29.90;99.90;;;;;;5074129;28;20267;-68
2022/04/10 03:49:50;;;;;;;8.73;2.20;;;28.90;99.90;;;;;;5073093;28;20191;-69
2022/04/10 03:52:17;;;;;;;4.27;2.03;;;29.80;99.90;;;;;;5074971;28;20200;-68
2022/04/10 03:54:45;;;;;;;3.80;1.60;;;29.50;99.90;;;;;;5074958;28;20274;-70
2022/04/10 03:57:12;;;;;;;5.23;1.80;;;29.30;99.90;;;;;;5074797;28;20172;-68
2022/04/10 03:59:39;;;;;;;3.90;1.67;;;29.30;99.90;;;;;;5074904;28;20179;-68
2022/04/10 04:02:06;;;;;;;4.03;1.73;;;28.80;99.90;;;;;;5074672;28;20175;-68
2022/04/10 04:04:37;;;;;;;6.60;1.63;;;28.20;99.90;;;;;;5074742;28;20186;-68
2022/04/10 04:07:04;;;;;;;7.07;2.27;;;28.80;99.90;;;;;;5074784;28;20208;-69
2022/04/10 04:09:32;;;;;;;8.80;2.60;;;28.90;99.90;;;;;;5074499;28;20215;-67
2022/04/10 04:11:59;;;;;;;4.83;1.87;;;29.20;99.90;;;;;;5074427;28;20187;-69
2022/04/10 04:14:26;;;;;;;5.50;1.77;;;29.70;99.90;;;;;;5074357;28;20225;-69
2022/04/10 04:16:54;;;;;;;3.33;1.77;;;29.40;99.90;;;;;;5074658;28;20172;-68
2022/04/10 04:19:21;;;;;;;5.83;1.60;;;29.20;99.90;;;;;;5074463;28;20180;-68
2022/04/10 04:21:48;;;;;;;4.27;1.53;;;28.70;99.90;;;;;;5074178;28;20219;-69
2022/04/10 04:24:15;;;;;;;5.53;1.67;;;28.10;99.90;;;;;;5074290;28;20184;-68
2022/04/10 04:26:43;;;;;;;6.30;1.73;;;28.20;99.90;;;;;;5074286;28;20180;-68
2022/04/10 04:29:10;;;;;;;6.13;2.00;;;28.40;99.90;;;;;;5073082;28;20678;-69
2022/04/10 04:31:37;;;;;;;4.93;1.53;;;28.50;99.90;;;;;;5074215;28;20259;-68
2022/04/10 04:34:07;;;;;;;5.83;1.90;;;27.90;99.90;;;;;;5059256;28;20191;-68
2022/04/10 04:36:34;;;;;;;5.80;2.30;;;28.10;99.90;;;;;;5054215;28;20172;-68
2022/04/10 04:39:01;;;;;;;7.30;2.03;;;28.50;99.90;;;;;;5053959;28;20188;-68
2022/04/10 04:41:28;;;;;;;3.77;1.63;;;28.70;99.90;;;;;;5053999;28;20207;-69
2022/04/10 04:43:56;;;;;;;4.57;1.93;;;28.30;99.90;;;;;;5053928;28;20173;-69
2022/04/10 04:46:23;;;;;;;4.53;1.87;;;28.20;99.90;;;;;;5053975;28;20252;-68
2022/04/10 04:48:50;;;;;;;8.33;2.43;;;28.00;99.90;;;;;;5053952;28;20200;-69
2022/04/10 04:51:18;;;;;;;4.83;1.80;;;27.70;99.90;;;;;;5053887;28;20168;-69
2022/04/10 04:53:45;;;;;;;8.97;2.20;;;27.50;99.90;;;;;;5052662;28;20192;-68
2022/04/10 04:56:15;;;;;;;8.90;2.20;;;27.60;99.90;;;;;;5053723;28;20187;-69
2022/04/10 04:58:47;;;;;;;7.07;2.00;;;27.80;99.90;;;;;;5052255;28;20229;-68
2022/04/10 05:01:15;;;;;;;10.73;2.93;;;27.30;99.90;;;;;;5055630;28;20177;-68
2022/04/10 05:03:42;;;;;;;11.53;2.80;;;27.30;99.90;;;;;;5073373;28;20179;-68
2022/04/10 05:06:09;;;;;;;13.37;2.50;;;27.30;99.90;;;;;;5073545;28;20171;-68
2022/04/10 05:08:36;;;;;;;6.67;1.63;;;27.10;99.90;;;;;;5073559;28;20220;-69
2022/04/10 05:11:04;;;;;;;6.27;1.70;;;26.90;99.90;;;;;;5073666;28;20203;-69
2022/04/10 05:13:31;;;;;;;8.60;1.73;;;26.60;99.90;;;;;;5073346;28;20176;-69
2022/04/10 05:15:59;;;;;;;4.53;2.10;;;26.30;99.90;;;;;;5073198;28;20685;-68
2022/04/10 05:18:26;;;;;;;6.00;1.40;;;26.10;99.90;;;;;;5073211;28;20179;-70
2022/04/10 05:20:53;;;;;;;13.10;2.30;;;25.80;99.90;;;;;;5073477;28;20185;-69
2022/04/10 05:23:21;;;;;;;8.50;2.30;;;25.60;99.90;;;;;;5073187;28;20180;-69
2022/04/10 05:25:50;;;;;;;5.27;1.67;;;25.60;99.90;;;;;;5072970;28;20673;-69
2022/04/10 05:28:17;;;;;;;8.37;1.70;;;25.40;99.90;;;;;;5073149;28;20204;-69
2022/04/10 05:30:46;;;;;;;19.50;3.63;;;25.40;99.90;;;;;;5072933;28;20183;-68
2022/04/10 05:33:14;;;;;;;7.70;1.70;;;25.60;99.90;;;;;;5072458;28;20226;-69
2022/04/10 05:35:41;;;;;;;8.90;2.20;;;25.40;99.90;;;;;;5073110;28;20180;-68
2022/04/10 05:38:08;;;;;;;7.33;2.40;;;25.20;99.90;;;;;;5072812;28;20180;-69
2022/04/10 05:40:36;;;;;;;5.20;1.80;;;25.00;99.90;;;;;;5072757;28;20545;-70
2022/04/10 05:43:04;;;;;;;8.23;1.67;;;24.90;99.90;;;;;;5071657;28;20650;-69
2022/04/10 05:45:34;;;;;;;11.23;2.57;;;24.90;99.90;;;;;;5072577;28;20638;-71
2022/04/10 05:48:02;;;;;;;8.77;2.07;;;24.50;99.90;;;;;;5071127;28;20212;-69
2022/04/10 05:50:29;;;;;;;7.93;2.70;;;24.40;99.90;;;;;;5073329;28;20270;-69
2022/04/10 05:52:56;;;;;;;7.97;1.93;;;24.40;99.90;;;;;;5072753;28;20397;-68
2022/04/10 05:55:24;;;;;;;7.50;2.20;;;24.40;99.90;;;;;;5073116;28;20168;-68
2022/04/10 05:57:52;;;;;;;6.60;2.20;;;24.90;99.90;;;;;;5072480;28;20172;-69
2022/04/10 06:00:21;;;;;;;6.47;1.70;;;25.50;99.90;;;;;;5072500;28;20176;-68
2022/04/10 06:02:48;;;;;;;6.03;1.73;;;25.20;99.90;;;;;;5071265;28;20176;-70
2022/04/10 06:05:16;;;;;;;7.90;2.20;;;25.20;99.90;;;;;;5072100;28;20266;-68
2022/04/10 06:07:43;;;;;;;5.70;2.23;;;25.60;99.90;;;;;;5072379;28;20220;-67
2022/04/10 06:10:11;;;;;;;12.80;2.53;;;25.60;99.90;;;;;;5072420;28;20270;-69
2022/04/10 06:12:38;;;;;;;10.37;2.97;;;25.30;99.90;;;;;;5072379;28;20188;-68
2022/04/10 06:15:06;;;;;;;8.73;2.00;;;25.40;99.90;;;;;;5072029;28;20223;-69
2022/04/10 06:17:33;;;;;;;9.73;2.10;;;25.40;99.90;;;;;;5072164;28;20183;-69
2022/04/10 06:20:01;;;;;;;4.27;1.93;;;25.10;99.90;;;;;;5070921;28;20180;-67
2022/04/10 06:22:28;;;;;;;6.40;1.93;;;25.30;99.90;;;;;;5072230;28;20251;-69
2022/04/10 06:24:55;;;;;;;5.47;1.73;;;25.50;99.90;;;;;;5072113;28;20180;-69
2022/04/10 06:27:23;;;;;;;6.43;1.73;;;25.60;99.90;;;;;;5072017;28;20680;-69
2022/04/10 06:29:50;;;;;;;9.20;2.30;;;25.40;99.90;;;;;;5072065;28;20176;-69
2022/04/10 06:32:17;;;;;;;7.53;2.17;;;25.00;99.90;;;;;;5072320;28;20229;-66
2022/04/10 06:34:45;;;;;;;7.77;1.90;;;24.80;99.90;;;;;;5070765;28;20604;-66
2022/04/10 06:37:12;;;;;;;11.13;2.40;;;24.80;99.90;;;;;;5072033;28;20540;-68
2022/04/10 06:39:40;;;;;;;8.83;2.03;;;24.80;99.90;;;;;;5071881;28;20172;-68
2022/04/10 06:42:08;;;;;;;9.43;2.07;;;25.00;99.90;;;;;;5072034;28;20229;-68
2022/04/10 06:44:37;;;;;;;8.10;1.73;;;25.20;99.90;;;;;;5072241;28;20176;-69
2022/04/10 06:47:04;;;;;;;8.67;2.63;;;25.20;99.90;;;;;;5072027;28;20232;-69
2022/04/10 06:49:32;;;;;;;8.17;2.17;;;25.30;99.90;;;;;;5071791;28;20221;-69
2022/04/10 06:52:00;;;;;;;4.33;1.53;;;25.50;99.90;;;;;;5071981;28;20263;-68
2022/04/10 06:54:27;;;;;;;12.00;2.43;;;25.30;99.90;;;;;;5070598;28;20207;-69
2022/04/10 06:56:54;;;;;;;6.40;2.73;;;24.90;99.90;;;;;;5071924;28;20184;-68
2022/04/10 06:59:22;;;;;;;5.73;2.10;;;24.60;99.90;;;;;;5071873;28;20268;-69
2022/04/10 07:01:49;;;;;;;6.70;2.00;;;24.40;99.90;;;;;;5071773;28;20600;-69
2022/04/10 07:04:16;;;;;;;8.50;1.97;;;24.20;99.90;;;;;;5071914;28;20270;-67
2022/04/10 07:06:47;;;;;;;5.50;2.37;;;24.00;99.90;;;;;;5071761;28;20187;-68
2022/04/10 07:09:15;;;;;;;4.73;2.10;;;23.90;99.90;;;;;;5071316;28;20234;-68
2022/04/10 07:11:43;;;;;;;9.23;2.10;;;24.10;99.90;;;;;;5071800;28;20178;-68
2022/04/10 07:14:10;;;;;;;4.67;1.80;;;24.30;99.90;;;;;;5071852;28;20180;-69
2022/04/10 07:16:37;;;;;;;6.97;1.87;;;24.30;99.90;;;;;;5072046;28;20206;-69
2022/04/10 07:19:06;;;;;;;5.20;1.63;;;24.20;99.90;;;;;;5075736;28;20271;-69
2022/04/10 07:24:18;;;;;;;8.17;2.00;;;23.90;99.90;;;;;;5055698;28;20190;-68
2022/04/10 07:26:45;;;;;;;9.17;2.20;;;23.70;99.90;;;;;;5055285;28;20184;-69
2022/04/10 07:29:13;;;;;;;6.30;2.27;;;23.50;99.90;;;;;;5055483;28;20270;-71
2022/04/10 07:31:41;;;;;;;8.40;1.97;;;23.30;99.90;;;;;;5069438;28;20183;-68
2022/04/10 07:34:08;;;;;;;5.87;2.00;;;23.20;99.90;;;;;;5066914;28;20192;-69
2022/04/10 07:36:36;;;;;;;10.80;2.10;;;23.10;99.90;;;;;;5058240;28;20303;-68
2022/04/10 07:39:04;;;;;;;8.53;2.20;;;23.00;99.90;;;;;;5055333;28;20633;-68
2022/04/10 07:41:31;;;;;;;7.23;2.37;;;22.90;99.90;;;;;;5055398;28;20289;-69
2022/04/10 07:43:59;;;;;;;10.90;2.13;;;22.70;99.90;;;;;;5057139;28;20701;-69
2022/04/10 07:49:11;;;;;;;9.30;1.93;;;22.60;99.90;;;;;;5060619;28;20244;-67
2022/04/10 07:51:39;;;;;;;8.70;2.50;;;22.50;99.90;;;;;;5059074;28;20714;-68
2022/04/10 07:54:06;;;;;;;4.97;2.33;;;22.40;99.90;;;;;;5057677;28;20186;-67
2022/04/10 07:56:33;;;;;;;9.50;1.90;;;22.50;99.90;;;;;;5059727;28;20180;-68
2022/04/10 07:59:01;;;;;;;9.77;2.63;;;22.30;99.90;;;;;;5059559;28;20177;-69
2022/04/10 08:01:28;;;;;;;11.50;2.47;;;22.30;99.90;;;;;;5058797;28;20580;-70
2022/04/10 08:03:55;;;;;;;11.63;2.53;;;22.20;99.90;;;;;;5055153;28;20605;-68
2022/04/10 08:06:23;;;;;;;11.97;2.60;;;22.30;99.90;;;;;;5055123;28;20657;-69
2022/04/10 08:08:50;;;;;;;9.47;2.50;;;22.30;99.90;;;;;;5054891;28;20244;-68
2022/04/10 08:11:17;;;;;;;12.40;2.97;;;22.30;99.90;;;;;;5054866;28;20180;-69
2022/04/10 08:13:48;;;;;;;12.50;3.40;;;22.20;99.90;;;;;;5054968;28;20274;-68
2022/04/10 08:16:15;;;;;;;11.47;3.27;;;22.10;99.90;;;;;;5053246;28;20245;-68
2022/04/10 08:18:43;;;;;;;10.60;3.40;;;22.10;99.90;;;;;;5054868;28;20213;-69
2022/04/10 08:21:11;;;;;;;11.57;3.60;;;22.00;99.90;;;;;;5054878;28;20545;-69
2022/04/10 08:23:38;;;;;;;10.63;4.10;;;21.90;99.90;;;;;;5071429;28;20186;-69
2022/04/10 08:26:05;;;;;;;10.83;4.00;;;21.80;99.90;;;;;;5074451;28;20172;-69
2022/04/10 08:28:34;;;;;;;14.33;4.37;;;21.70;99.90;;;;;;5074157;28;20654;-67
2022/04/10 08:31:02;;;;;;;10.70;3.60;;;21.70;99.90;;;;;;5076692;28;20183;-69
2022/04/10 08:33:29;;;;;;;9.07;4.23;;;21.70;99.90;;;;;;5093527;28;20226;-69
2022/04/10 08:35:56;;;;;;;10.10;3.60;;;21.70;99.90;;;;;;5094668;28;20186;-68
2022/04/10 08:38:24;;;;;;;7.93;4.40;;;21.60;99.90;;;;;;5094553;28;20226;-70
2022/04/10 08:41:02;;;;;;;12.17;4.10;;;21.60;99.90;;;;;;5093378;28;20663;-69
2022/04/10 08:43:30;;;;;;;9.80;4.10;;;21.50;99.90;;;;;;5094625;28;20184;-69
2022/04/10 08:45:59;;;;;;;10.50;3.87;;;21.50;99.90;;;;;;5094396;28;20244;-69
2022/04/10 08:48:27;;;;;;;11.97;3.60;;;21.40;99.90;;;;;;5094536;28;20685;-69
2022/04/10 08:51:12;;;;;;;13.90;4.63;;;21.40;99.90;;;;;;5094398;28;20216;-69
2022/04/10 08:53:39;;;;;;;12.00;4.00;;;21.30;99.90;;;;;;5094358;28;20175;-69
2022/04/10 08:56:10;;;;;;;14.23;4.83;;;21.20;99.90;;;;;;5094357;28;20186;-69
2022/04/10 08:58:37;;;;;;;11.13;3.47;;;21.10;99.90;;;;;;5106723;28;20176;-69
2022/04/10 09:01:05;;;;;;;13.10;3.97;;;21.20;99.90;;;;;;5109402;28;20739;-70
2022/04/10 09:03:32;;;;;;;10.83;4.43;;;21.20;99.90;;;;;;5094109;28;20171;-70
2022/04/10 09:06:07;;;;;;;9.30;4.03;;;21.10;99.90;;;;;;5094104;28;20177;-68
2022/04/10 09:08:35;;;;;;;10.40;4.57;;;21.10;99.90;;;;;;5094227;28;20238;-69
2022/04/10 09:11:11;;;;;;;12.27;4.80;;;21.00;99.90;;;;;;5094212;28;20179;-70
2022/04/10 09:13:47;;;;;;;10.87;4.23;;;20.90;99.90;;;;;;5097533;28;20194;-69
2022/04/10 09:16:16;;;;;;;12.03;4.07;;;20.80;99.90;;;;;;5093641;28;20258;-67
2022/04/10 09:18:49;;;;;;;10.47;3.70;;;20.80;99.90;;;;;;5053720;28;20184;-69
2022/04/10 09:21:24;;;;;;;9.70;3.40;;;20.70;99.90;;;;;;5053759;28;20180;-70
2022/04/10 09:24:06;;;;;;;12.73;3.30;;;20.70;99.90;;;;;;5071069;28;20644;-70
2022/04/10 09:26:55;;;;;;;8.10;3.50;;;20.80;99.90;;;;;;5073699;28;20187;-69
2022/04/10 09:29:24;;;;;;;14.23;3.07;;;20.80;99.90;;;;;;5073348;28;20204;-70
2022/04/10 09:31:54;;;;;;;14.40;3.60;;;20.70;99.90;;;;;;5073185;28;20221;-71
2022/04/10 09:34:25;;;;;;;10.20;3.10;;;20.70;99.90;;;;;;5071972;28;20657;-69
2022/04/10 09:37:04;;;;;;;10.33;3.30;;;20.60;99.90;;;;;;5073189;28;20215;-70
2022/04/10 09:39:33;;;;;;;11.57;2.93;;;20.50;99.90;;;;;;5072961;28;20172;-69
2022/04/10 09:42:12;;;;;;;6.80;2.60;;;20.50;99.90;;;;;;5093279;28;20185;-69
2022/04/10 09:44:40;;;;;;;9.77;2.77;;;20.40;99.90;;;;;;5073820;28;20222;-70
2022/04/10 09:47:09;;;;;;;9.93;2.83;;;20.40;99.90;;;;;;5058909;28;20180;-70
2022/04/10 09:49:37;;;;;;;10.97;2.67;;;20.40;99.90;;;;;;5069486;28;20218;-69
2022/04/10 09:52:14;;;;;;;13.10;2.70;;;20.30;99.90;;;;;;5077716;28;20196;-69
2022/04/10 09:54:51;;;;;;;17.63;2.70;;;20.20;99.90;;;;;;5071600;28;20290;-70
2022/04/10 09:57:22;;;;;;;16.53;3.17;;;20.10;99.90;;;;;;5072807;28;20180;-70
2022/04/10 09:59:52;;;;;;;9.27;2.73;;;20.10;99.90;;;;;;5069506;28;20184;-69
2022/04/10 10:02:23;;;;;;;9.47;2.83;;;20.00;99.90;;;;;;5052725;28;20203;-67
2022/04/10 10:04:54;;;;;;;8.20;2.23;;;20.00;99.90;;;;;;5052612;28;20228;-69
2022/04/10 10:07:21;;;;;;;7.67;2.63;;;19.90;99.90;;;;;;5058458;28;20206;-69
2022/04/10 10:09:49;;;;;;;9.07;3.00;;;19.90;99.90;;;;;;5063746;28;20212;-69
2022/04/10 10:12:18;;;;;;;11.73;3.00;;;20.00;99.90;;;;;;5052508;28;20172;-69
2022/04/10 10:14:46;;;;;;;5.33;2.00;;;19.90;99.90;;;;;;5051022;28;20232;-67
2022/04/10 10:17:13;;;;;;;9.07;2.70;;;19.80;99.90;;;;;;5057404;28;20722;-67
2022/04/10 10:19:42;;;;;;;11.27;2.80;;;19.80;99.90;;;;;;5064340;28;20653;-67
2022/04/10 10:22:17;;;;;;;6.60;2.50;;;19.70;99.90;;;;;;5052298;28;20185;-67
2022/04/10 10:25:09;;;;;;;13.73;2.67;;;19.60;99.90;;;;;;5067517;28;20191;-67
2022/04/10 10:27:48;;;;;;;10.97;2.63;;;19.50;99.90;;;;;;5062226;28;20196;-69
2022/04/10 10:30:24;;;;;;;12.37;3.50;;;19.60;99.90;;;;;;5065713;28;20684;-67
2022/04/10 10:32:58;;;;;;;6.67;2.73;;;19.50;99.90;;;;;;5073564;28;20258;-67
2022/04/10 10:35:49;;;;;;;11.20;2.53;;;19.40;99.90;;;;;;5073410;28;20186;-68
2022/04/10 10:38:29;;;;;;;6.43;2.80;;;19.40;99.90;;;;;;5065041;28;20710;-68
2022/04/10 10:41:21;;;;;;;10.57;2.80;;;19.30;99.90;;;;;;5061191;28;20282;-68
2022/04/10 10:43:49;;;;;;;11.73;2.73;;;19.30;99.90;;;;;;5053855;28;20182;-69
2022/04/10 10:46:34;;;;;;;10.90;2.47;;;19.30;99.90;;;;;;5064962;28;20183;-69
2022/04/10 10:49:20;;;;;;;18.27;3.57;;;19.30;99.90;;;;;;5071548;28;20211;-69
2022/04/10 10:51:51;;;;;;;13.13;2.50;;;19.30;99.90;;;;;;5053463;28;20222;-69
2022/04/10 10:54:26;;;;;;;12.33;3.50;;;19.30;99.90;;;;;;5052150;28;20236;-69
2022/04/10 10:56:54;;;;;;;13.47;3.53;;;19.20;99.90;;;;;;5052951;28;20172;-69
2022/04/10 10:59:32;;;;;;;10.10;2.40;;;19.20;99.90;;;;;;5056799;28;20216;-68
2022/04/10 11:02:11;;;;;;;12.07;3.50;;;19.20;99.90;;;;;;5072291;28;20179;-68
2022/04/10 11:04:47;;;;;;;7.00;2.77;;;19.10;99.90;;;;;;5072663;28;20238;-68
2022/04/10 11:07:27;;;;;;;8.30;3.10;;;19.10;99.90;;;;;;5061707;28;20192;-67
2022/04/10 11:09:59;;;;;;;6.10;2.90;;;19.10;99.90;;;;;;5061766;28;20211;-68
2022/04/10 11:12:53;;;;;;;5.27;2.47;;;19.00;99.90;;;;;;5073492;28;20176;-68
2022/04/10 11:15:22;;;;;;;13.17;3.23;;;19.00;99.90;;;;;;5053167;28;20792;-68
2022/04/10 11:17:51;;;;;;;9.87;2.60;;;19.00;99.90;;;;;;5052797;28;20290;-67
2022/04/10 11:20:21;;;;;;;8.37;2.60;;;18.90;99.90;;;;;;5060795;28;20190;-67
2022/04/10 11:22:56;;;;;;;7.87;2.60;;;18.80;99.90;;;;;;5073558;28;20187;-68
2022/04/10 11:25:31;;;;;;;9.43;3.80;;;18.80;99.90;;;;;;5072569;28;20183;-67
2022/04/10 11:28:01;;;;;;;7.43;2.63;;;18.80;99.90;;;;;;5070790;28;20217;-68
2022/04/10 11:30:47;;;;;;;9.50;2.70;;;18.80;99.90;;;;;;5072594;28;20192;-68
2022/04/10 11:33:17;;;;;;;8.57;2.90;;;18.70;99.90;;;;;;5073069;28;20191;-68
2022/04/10 11:35:54;;;;;;;13.00;3.40;;;18.70;99.90;;;;;;5073362;28;20263;-68
2022/04/10 11:38:25;;;;;;;10.57;3.00;;;18.70;99.90;;;;;;5071725;28;20609;-68
2022/04/10 11:40:54;;;;;;;10.50;2.90;;;18.60;99.90;;;;;;5057474;28;20183;-68
2022/04/10 11:43:23;;;;;;;8.87;2.80;;;18.60;99.90;;;;;;5052170;28;20193;-68
2022/04/10 11:45:53;;;;;;;11.90;3.80;;;18.60;99.90;;;;;;5052836;28;20549;-69
2022/04/10 11:48:24;;;;;;;7.87;3.10;;;18.50;99.90;;;;;;5052785;28;20240;-68
2022/04/10 11:50:52;;;;;;;12.40;3.47;;;18.50;99.90;;;;;;5068669;28;20184;-69
2022/04/10 11:53:29;;;;;;;8.77;2.90;;;18.50;99.90;;;;;;5072756;28;20222;-68
2022/04/10 11:55:57;;;;;;;10.23;3.30;;;18.50;99.90;;;;;;5071622;28;20190;-68
2022/04/10 11:58:27;;;;;;;11.10;3.33;;;18.50;99.90;;;;;;5073994;28;20176;-69
2022/04/10 12:01:05;;;;;;;6.03;2.40;;;18.40;99.90;;;;;;5055973;28;20224;-68
2022/04/10 12:03:35;;;;;;;10.20;2.80;;;18.40;99.90;;;;;;5057066;28;20656;-69
2022/04/10 12:06:06;;;;;;;5.53;2.27;;;18.40;99.90;;;;;;5067231;28;20179;-69
2022/04/10 12:08:33;;;;;;;11.53;3.30;;;18.40;99.90;;;;;;5076962;28;20208;-69
2022/04/10 12:11:06;;;;;;;12.27;3.10;;;18.30;99.90;;;;;;5057935;28;20279;-70
2022/04/10 12:13:38;;;;;;;10.23;2.93;;;18.30;99.90;;;;;;5056447;28;20283;-70
2022/04/10 12:16:16;;;;;;;11.03;3.10;;;18.20;99.90;;;;;;5057600;28;20310;-70
2022/04/10 12:18:57;;;;;;;8.73;3.30;;;18.30;99.90;;;;;;5068911;28;20215;-70
2022/04/10 12:21:28;;;;;;;13.63;4.80;;;18.40;99.90;;;;;;5057828;28;20213;-70
2022/04/10 12:24:01;;;;;;;13.10;4.80;;;18.40;99.90;;;;;;5057762;28;20239;-70
2022/04/10 12:26:29;;;;;;;10.87;4.50;;;18.40;99.90;;;;;;5056268;28;20296;-69
2022/04/10 12:28:58;;;;;;;12.63;4.17;;;18.40;99.90;;;;;;5055763;28;20583;-68
2022/04/10 12:31:28;;;;;;;11.53;4.37;;;18.30;99.90;;;;;;5076598;28;20176;-68
2022/04/10 12:33:56;;;;;;;11.67;4.40;;;18.30;99.90;;;;;;5070444;28;20192;-69
2022/04/10 12:36:28;;;;;;;10.20;3.83;;;18.20;99.90;;;;;;5057268;28;20192;-69
2022/04/10 12:38:57;;;;;;;11.47;3.40;;;18.20;99.90;;;;;;5056254;28;20533;-68
2022/04/10 12:41:32;;;;;;;9.53;3.90;;;18.10;99.90;;;;;;5076984;28;20188;-69
2022/04/10 12:44:09;;;;;;;11.57;4.13;;;18.10;99.90;;;;;;5076643;28;20191;-69
2022/04/10 12:46:42;;;;;;;17.57;4.97;;;18.10;99.90;;;;;;5076077;28;20546;-67
2022/04/10 12:49:14;;;;;;;8.23;3.63;;;18.10;99.90;;;;;;5075721;28;20269;-68
2022/04/10 12:52:09;;;;;;;10.87;4.80;;;18.10;99.90;;;;;;5062028;28;20172;-69
2022/04/10 12:54:47;;;;;;;10.77;4.57;;;18.10;99.90;;;;;;5056928;28;20544;-70
2022/04/10 12:57:27;;;;;;;9.07;4.60;;;18.00;99.90;;;;;;5056923;28;20226;-70
2022/04/10 12:59:56;;;;;;;12.67;4.30;;;18.00;99.90;;;;;;5057095;28;20208;-69
2022/04/10 13:02:26;;;;;;;12.47;4.40;;;17.90;99.90;;;;;;5056865;28;20177;-70